Terminal Aerodrome Forecast
Issued by NWS Charleston, WV

Home | Current Version | Previous Version | Text Only | Print | Product List | Glossary On
Versions: 1 2 3 4 5 6 7 8 9 10 11 12 13 14 15 16 17 18 19 20 21 22 23 24 25 26 27 28 29 30 31 32
049
FTUS41 KRLX 282359 CCA
TAFHTS
TAF COR
KHTS 282359Z 2900/2924 VRB03KT 6SM SHRA BR OVC012
     FM290100 VRB03KT 4SM HZ BKN015
     FM290200 00000KT 1/2SM FG BKN002
     FM291200 00000KT 2SM BR BKN005
     FM291300 VRB03KT 6SM HZ BKN020
     FM291400 27005KT P6SM VCTS BKN040CB=

USA.gov is the U.S. government's official web portal to all federal, state and local government web resources and services.